sensor_id;sensor_type;location;lat;lon;timestamp;temperature;humidity
22852;DHT22;11592;45.460;9.240;2022-09-21T00:01:13;18.90;99.90
22852;DHT22;11592;45.460;9.240;2022-09-21T00:03:41;18.80;99.90
22852;DHT22;11592;45.460;9.240;2022-09-21T00:06:16;18.80;99.90
22852;DHT22;11592;45.460;9.240;2022-09-21T00:08:45;18.80;99.90
22852;DHT22;11592;45.460;9.240;2022-09-21T00:11:14;18.80;99.90
22852;DHT22;11592;45.460;9.240;2022-09-21T00:13:41;18.60;99.90
22852;DHT22;11592;45.460;9.240;2022-09-21T00:16:08;18.60;99.90
22852;DHT22;11592;45.460;9.240;2022-09-21T00:18:36;18.60;99.90
22852;DHT22;11592;45.460;9.240;2022-09-21T00:21:07;18.60;99.90
22852;DHT22;11592;45.460;9.240;2022-09-21T00:23:35;18.60;99.90
22852;DHT22;11592;45.460;9.240;2022-09-21T00:26:14;18.60;99.90
22852;DHT22;11592;45.460;9.240;2022-09-21T00:28:42;18.60;99.90
22852;DHT22;11592;45.460;9.240;2022-09-21T00:31:13;18.50;99.90
22852;DHT22;11592;45.460;9.240;2022-09-21T00:33:41;18.50;99.90
22852;DHT22;11592;45.460;9.240;2022-09-21T00:36:14;18.50;99.90
22852;DHT22;11592;45.460;9.240;2022-09-21T00:38:43;18.50;99.90
22852;DHT22;11592;45.460;9.240;2022-09-21T00:41:11;18.50;99.90
22852;DHT22;11592;45.460;9.240;2022-09-21T00:46:32;18.30;99.90
22852;DHT22;11592;45.460;9.240;2022-09-21T00:48:59;18.40;99.90
22852;DHT22;11592;45.460;9.240;2022-09-21T00:51:25;18.40;99.90
22852;DHT22;11592;45.460;9.240;2022-09-21T00:54:00;18.40;99.90
22852;DHT22;11592;45.460;9.240;2022-09-21T00:56:28;18.30;99.90
22852;DHT22;11592;45.460;9.240;2022-09-21T00:58:55;18.40;99.90
22852;DHT22;11592;45.460;9.240;2022-09-21T01:01:23;18.30;99.90
22852;DHT22;11592;45.460;9.240;2022-09-21T01:03:51;18.30;99.90
22852;DHT22;11592;45.460;9.240;2022-09-21T01:06:19;18.20;99.90
22852;DHT22;11592;45.460;9.240;2022-09-21T01:08:50;18.20;99.90
22852;DHT22;11592;45.460;9.240;2022-09-21T01:17:28;18.10;99.90
22852;DHT22;11592;45.460;9.240;2022-09-21T01:22:57;18.00;99.90
22852;DHT22;11592;45.460;9.240;2022-09-21T01:26:00;18.10;99.90
22852;DHT22;11592;45.460;9.240;2022-09-21T01:30:59;18.10;99.90
22852;DHT22;11592;45.460;9.240;2022-09-21T01:33:32;18.10;99.90
22852;DHT22;11592;45.460;9.240;2022-09-21T01:36:06;18.10;99.90
22852;DHT22;11592;45.460;9.240;2022-09-21T01:38:39;18.10;99.90
22852;DHT22;11592;45.460;9.240;2022-09-21T01:41:09;18.00;99.90
22852;DHT22;11592;45.460;9.240;2022-09-21T01:43:41;18.00;99.90
22852;DHT22;11592;45.460;9.240;2022-09-21T01:46:13;18.00;99.90
22852;DHT22;11592;45.460;9.240;2022-09-21T01:48:43;18.00;99.90
22852;DHT22;11592;45.460;9.240;2022-09-21T01:51:13;18.10;99.90
22852;DHT22;11592;45.460;9.240;2022-09-21T01:53:46;18.10;99.90
22852;DHT22;11592;45.460;9.240;2022-09-21T01:56:15;18.10;99.90
22852;DHT22;11592;45.460;9.240;2022-09-21T01:59:03;18.10;99.90
22852;DHT22;11592;45.460;9.240;2022-09-21T02:01:38;18.10;99.90
22852;DHT22;11592;45.460;9.240;2022-09-21T02:04:11;18.00;99.90
22852;DHT22;11592;45.460;9.240;2022-09-21T02:06:41;18.00;99.90
22852;DHT22;11592;45.460;9.240;2022-09-21T02:09:10;18.10;99.90
22852;DHT22;11592;45.460;9.240;2022-09-21T02:11:37;18.10;99.90
22852;DHT22;11592;45.460;9.240;2022-09-21T02:14:17;18.10;99.90
22852;DHT22;11592;45.460;9.240;2022-09-21T02:17:15;18.10;99.90
22852;DHT22;11592;45.460;9.240;2022-09-21T02:24:59;18.10;99.90
22852;DHT22;11592;45.460;9.240;2022-09-21T02:35:36;17.90;99.90
22852;DHT22;11592;45.460;9.240;2022-09-21T02:41:18;17.80;99.90
22852;DHT22;11592;45.460;9.240;2022-09-21T02:44:01;17.90;99.90
22852;DHT22;11592;45.460;9.240;2022-09-21T02:49:38;17.80;99.90
22852;DHT22;11592;45.460;9.240;2022-09-21T02:52:11;17.80;99.90
22852;DHT22;11592;45.460;9.240;2022-09-21T02:54:40;18.00;99.90
22852;DHT22;11592;45.460;9.240;2022-09-21T02:57:09;17.80;99.90
22852;DHT22;11592;45.460;9.240;2022-09-21T02:59:39;17.80;99.90
22852;DHT22;11592;45.460;9.240;2022-09-21T03:02:06;17.90;99.90
22852;DHT22;11592;45.460;9.240;2022-09-21T03:04:33;17.80;99.90
22852;DHT22;11592;45.460;9.240;2022-09-21T03:07:00;17.90;99.90
22852;DHT22;11592;45.460;9.240;2022-09-21T03:09:27;17.80;99.90
22852;DHT22;11592;45.460;9.240;2022-09-21T03:11:55;17.80;99.90
22852;DHT22;11592;45.460;9.240;2022-09-21T03:14:21;17.80;99.90
22852;DHT22;11592;45.460;9.240;2022-09-21T03:16:48;17.80;99.90
22852;DHT22;11592;45.460;9.240;2022-09-21T03:19:15;17.80;99.90
22852;DHT22;11592;45.460;9.240;2022-09-21T03:21:42;17.80;99.90
22852;DHT22;11592;45.460;9.240;2022-09-21T03:24:10;17.80;99.90
22852;DHT22;11592;45.460;9.240;2022-09-21T03:26:37;17.80;99.90
22852;DHT22;11592;45.460;9.240;2022-09-21T03:29:04;17.80;99.90
22852;DHT22;11592;45.460;9.240;2022-09-21T03:31:32;17.80;99.90
22852;DHT22;11592;45.460;9.240;2022-09-21T03:34:00;17.80;99.90
22852;DHT22;11592;45.460;9.240;2022-09-21T03:36:27;17.80;99.90
22852;DHT22;11592;45.460;9.240;2022-09-21T03:38:54;17.80;99.90
22852;DHT22;11592;45.460;9.240;2022-09-21T03:41:21;17.80;99.90
22852;DHT22;11592;45.460;9.240;2022-09-21T03:43:47;18.70;99.90
22852;DHT22;11592;45.460;9.240;2022-09-21T03:46:14;17.80;99.90
22852;DHT22;11592;45.460;9.240;2022-09-21T03:48:42;17.90;99.90
22852;DHT22;11592;45.460;9.240;2022-09-21T03:51:12;17.90;99.90
22852;DHT22;11592;45.460;9.240;2022-09-21T03:53:40;18.00;99.90
22852;DHT22;11592;45.460;9.240;2022-09-21T03:56:07;18.00;99.90
22852;DHT22;11592;45.460;9.240;2022-09-21T03:58:34;18.00;99.90
22852;DHT22;11592;45.460;9.240;2022-09-21T04:01:01;18.00;99.90
22852;DHT22;11592;45.460;9.240;2022-09-21T04:03:29;18.10;99.90
22852;DHT22;11592;45.460;9.240;2022-09-21T04:05:56;18.00;99.90
22852;DHT22;11592;45.460;9.240;2022-09-21T04:08:23;18.10;99.90
22852;DHT22;11592;45.460;9.240;2022-09-21T04:10:50;18.00;99.90
22852;DHT22;11592;45.460;9.240;2022-09-21T04:13:16;18.10;99.90
22852;DHT22;11592;45.460;9.240;2022-09-21T04:15:43;18.00;99.90
22852;DHT22;11592;45.460;9.240;2022-09-21T04:18:10;18.10;99.90
22852;DHT22;11592;45.460;9.240;2022-09-21T04:20:37;18.10;99.90
22852;DHT22;11592;45.460;9.240;2022-09-21T04:23:04;18.10;99.90
22852;DHT22;11592;45.460;9.240;2022-09-21T04:25:31;18.10;99.90
22852;DHT22;11592;45.460;9.240;2022-09-21T04:27:59;18.10;99.90
22852;DHT22;11592;45.460;9.240;2022-09-21T04:30:25;18.10;99.90
22852;DHT22;11592;45.460;9.240;2022-09-21T04:32:52;18.20;99.90
22852;DHT22;11592;45.460;9.240;2022-09-21T04:35:19;18.10;99.90
22852;DHT22;11592;45.460;9.240;2022-09-21T04:37:46;18.10;99.90
22852;DHT22;11592;45.460;9.240;2022-09-21T04:40:13;18.10;99.90
22852;DHT22;11592;45.460;9.240;2022-09-21T04:42:40;18.00;99.90
22852;DHT22;11592;45.460;9.240;2022-09-21T04:45:07;18.00;99.90
22852;DHT22;11592;45.460;9.240;2022-09-21T04:47:34;18.00;99.90
22852;DHT22;11592;45.460;9.240;2022-09-21T04:50:00;17.90;99.90
22852;DHT22;11592;45.460;9.240;2022-09-21T04:52:27;17.90;99.90
22852;DHT22;11592;45.460;9.240;2022-09-21T04:54:54;17.80;99.90
22852;DHT22;11592;45.460;9.240;2022-09-21T04:57:21;17.70;99.90
22852;DHT22;11592;45.460;9.240;2022-09-21T04:59:48;17.70;99.90
22852;DHT22;11592;45.460;9.240;2022-09-21T05:02:15;17.70;99.90
22852;DHT22;11592;45.460;9.240;2022-09-21T05:04:42;17.70;99.90
22852;DHT22;11592;45.460;9.240;2022-09-21T05:07:14;17.70;99.90
22852;DHT22;11592;45.460;9.240;2022-09-21T05:09:41;17.70;99.90
22852;DHT22;11592;45.460;9.240;2022-09-21T05:12:26;17.70;99.90
22852;DHT22;11592;45.460;9.240;2022-09-21T05:14:53;17.60;99.90
22852;DHT22;11592;45.460;9.240;2022-09-21T05:17:22;17.50;99.90
22852;DHT22;11592;45.460;9.240;2022-09-21T05:19:49;17.40;99.90
22852;DHT22;11592;45.460;9.240;2022-09-21T05:22:16;17.40;99.90
22852;DHT22;11592;45.460;9.240;2022-09-21T05:24:43;17.40;99.90
22852;DHT22;11592;45.460;9.240;2022-09-21T05:27:10;17.30;99.90
22852;DHT22;11592;45.460;9.240;2022-09-21T05:29:39;17.30;99.90
22852;DHT22;11592;45.460;9.240;2022-09-21T05:32:21;17.40;99.90
22852;DHT22;11592;45.460;9.240;2022-09-21T05:35:06;17.30;99.90
22852;DHT22;11592;45.460;9.240;2022-09-21T05:38:02;17.30;99.90
22852;DHT22;11592;45.460;9.240;2022-09-21T05:40:32;17.30;99.90
22852;DHT22;11592;45.460;9.240;2022-09-21T05:43:00;17.30;99.90
22852;DHT22;11592;45.460;9.240;2022-09-21T05:45:27;17.30;99.90
22852;DHT22;11592;45.460;9.240;2022-09-21T05:48:00;17.30;99.90
22852;DHT22;11592;45.460;9.240;2022-09-21T05:58:45;17.30;99.90
22852;DHT22;11592;45.460;9.240;2022-09-21T06:04:09;17.30;99.90
22852;DHT22;11592;45.460;9.240;2022-09-21T06:06:39;17.30;99.90
22852;DHT22;11592;45.460;9.240;2022-09-21T06:09:05;17.30;99.90
22852;DHT22;11592;45.460;9.240;2022-09-21T06:11:33;17.40;99.90
22852;DHT22;11592;45.460;9.240;2022-09-21T06:14:00;17.40;99.90
22852;DHT22;11592;45.460;9.240;2022-09-21T06:16:39;17.40;99.90
22852;DHT22;11592;45.460;9.240;2022-09-21T06:19:10;17.40;99.90
22852;DHT22;11592;45.460;9.240;2022-09-21T06:21:37;17.40;99.90
22852;DHT22;11592;45.460;9.240;2022-09-21T06:24:04;17.50;99.90
22852;DHT22;11592;45.460;9.240;2022-09-21T06:26:30;17.40;99.90
22852;DHT22;11592;45.460;9.240;2022-09-21T06:28:57;17.40;99.90
22852;DHT22;11592;45.460;9.240;2022-09-21T06:31:26;17.70;99.90
22852;DHT22;11592;45.460;9.240;2022-09-21T06:33:53;17.40;99.90
22852;DHT22;11592;45.460;9.240;2022-09-21T06:36:20;17.30;99.90
22852;DHT22;11592;45.460;9.240;2022-09-21T06:38:46;17.50;99.90
22852;DHT22;11592;45.460;9.240;2022-09-21T06:41:13;17.30;99.90
22852;DHT22;11592;45.460;9.240;2022-09-21T06:43:46;16.60;99.90
22852;DHT22;11592;45.460;9.240;2022-09-21T06:46:13;17.30;99.90
22852;DHT22;11592;45.460;9.240;2022-09-21T06:48:40;17.40;99.90
22852;DHT22;11592;45.460;9.240;2022-09-21T06:51:10;17.30;99.90
22852;DHT22;11592;45.460;9.240;2022-09-21T06:53:37;17.20;99.90
22852;DHT22;11592;45.460;9.240;2022-09-21T06:56:07;17.30;99.90
22852;DHT22;11592;45.460;9.240;2022-09-21T06:58:35;17.50;99.90
22852;DHT22;11592;45.460;9.240;2022-09-21T07:01:08;17.50;99.90
22852;DHT22;11592;45.460;9.240;2022-09-21T07:03:36;17.50;99.90
22852;DHT22;11592;45.460;9.240;2022-09-21T07:06:04;17.40;99.90
22852;DHT22;11592;45.460;9.240;2022-09-21T07:08:32;17.50;99.90
22852;DHT22;11592;45.460;9.240;2022-09-21T07:11:19;17.60;99.90
22852;DHT22;11592;45.460;9.240;2022-09-21T07:13:48;17.70;99.90
22852;DHT22;11592;45.460;9.240;2022-09-21T07:16:16;17.90;99.90
22852;DHT22;11592;45.460;9.240;2022-09-21T07:18:45;17.90;99.90
22852;DHT22;11592;45.460;9.240;2022-09-21T07:21:12;17.90;99.90
22852;DHT22;11592;45.460;9.240;2022-09-21T07:23:40;18.00;99.90
22852;DHT22;11592;45.460;9.240;2022-09-21T07:26:12;18.00;99.90
22852;DHT22;11592;45.460;9.240;2022-09-21T07:28:40;18.00;99.90
22852;DHT22;11592;45.460;9.240;2022-09-21T07:31:12;17.90;99.90
22852;DHT22;11592;45.460;9.240;2022-09-21T07:33:43;18.00;99.90
22852;DHT22;11592;45.460;9.240;2022-09-21T07:36:13;18.00;99.90
22852;DHT22;11592;45.460;9.240;2022-09-21T07:38:42;18.00;99.90
22852;DHT22;11592;45.460;9.240;2022-09-21T07:41:11;18.20;99.90
22852;DHT22;11592;45.460;9.240;2022-09-21T07:43:39;18.30;99.90
22852;DHT22;11592;45.460;9.240;2022-09-21T07:46:11;18.40;99.90
22852;DHT22;11592;45.460;9.240;2022-09-21T07:48:39;17.70;99.90
22852;DHT22;11592;45.460;9.240;2022-09-21T07:51:11;18.50;99.90
22852;DHT22;11592;45.460;9.240;2022-09-21T07:53:40;18.60;99.90
22852;DHT22;11592;45.460;9.240;2022-09-21T07:56:09;18.50;99.90
22852;DHT22;11592;45.460;9.240;2022-09-21T07:58:37;18.50;99.90
22852;DHT22;11592;45.460;9.240;2022-09-21T08:01:23;18.50;99.90
22852;DHT22;11592;45.460;9.240;2022-09-21T08:03:52;18.60;99.90
22852;DHT22;11592;45.460;9.240;2022-09-21T08:06:20;18.70;99.90
22852;DHT22;11592;45.460;9.240;2022-09-21T08:08:48;18.70;99.90
22852;DHT22;11592;45.460;9.240;2022-09-21T08:11:23;18.80;99.90
22852;DHT22;11592;45.460;9.240;2022-09-21T08:13:54;18.80;99.90
22852;DHT22;11592;45.460;9.240;2022-09-21T08:16:21;18.90;99.90
22852;DHT22;11592;45.460;9.240;2022-09-21T08:18:48;19.00;99.90
22852;DHT22;11592;45.460;9.240;2022-09-21T08:21:17;19.20;99.90
22852;DHT22;11592;45.460;9.240;2022-09-21T08:23:47;19.40;99.90
22852;DHT22;11592;45.460;9.240;2022-09-21T08:26:17;19.60;99.90
22852;DHT22;11592;45.460;9.240;2022-09-21T08:28:50;19.70;99.90
22852;DHT22;11592;45.460;9.240;2022-09-21T08:31:19;19.90;99.90
22852;DHT22;11592;45.460;9.240;2022-09-21T08:33:47;20.10;99.90
22852;DHT22;11592;45.460;9.240;2022-09-21T08:36:16;20.10;99.90
22852;DHT22;11592;45.460;9.240;2022-09-21T08:38:43;20.00;99.90
22852;DHT22;11592;45.460;9.240;2022-09-21T08:43:51;20.00;99.90
22852;DHT22;11592;45.460;9.240;2022-09-21T08:46:22;20.00;99.90
22852;DHT22;11592;45.460;9.240;2022-09-21T08:49:00;19.90;99.90
22852;DHT22;11592;45.460;9.240;2022-09-21T08:51:33;19.80;99.90
22852;DHT22;11592;45.460;9.240;2022-09-21T08:54:18;19.80;99.90
22852;DHT22;11592;45.460;9.240;2022-09-21T08:56:46;19.80;99.90
22852;DHT22;11592;45.460;9.240;2022-09-21T08:59:31;19.70;99.90
22852;DHT22;11592;45.460;9.240;2022-09-21T09:05:31;19.90;99.90
22852;DHT22;11592;45.460;9.240;2022-09-21T09:08:11;20.00;99.90
22852;DHT22;11592;45.460;9.240;2022-09-21T09:13:35;20.20;99.90
22852;DHT22;11592;45.460;9.240;2022-09-21T09:18:56;20.00;99.90
22852;DHT22;11592;45.460;9.240;2022-09-21T09:21:38;20.00;99.90
22852;DHT22;11592;45.460;9.240;2022-09-21T09:26:52;20.00;99.90
22852;DHT22;11592;45.460;9.240;2022-09-21T09:32:46;20.40;99.90
22852;DHT22;11592;45.460;9.240;2022-09-21T09:35:23;20.40;99.90
22852;DHT22;11592;45.460;9.240;2022-09-21T09:37:56;20.40;99.90
22852;DHT22;11592;45.460;9.240;2022-09-21T09:40:47;20.50;99.90
22852;DHT22;11592;45.460;9.240;2022-09-21T09:46:35;20.90;99.90
22852;DHT22;11592;45.460;9.240;2022-09-21T09:51:38;21.10;99.70
22852;DHT22;11592;45.460;9.240;2022-09-21T09:54:13;21.00;99.30
22852;DHT22;11592;45.460;9.240;2022-09-21T09:56:41;21.00;99.30
22852;DHT22;11592;45.460;9.240;2022-09-21T09:59:53;21.00;99.10
22852;DHT22;11592;45.460;9.240;2022-09-21T10:02:25;21.00;99.00
22852;DHT22;11592;45.460;9.240;2022-09-21T10:05:00;21.00;99.10
22852;DHT22;11592;45.460;9.240;2022-09-21T10:07:37;21.10;99.50
22852;DHT22;11592;45.460;9.240;2022-09-21T10:10:35;21.10;99.30
22852;DHT22;11592;45.460;9.240;2022-09-21T10:13:20;21.10;99.70
22852;DHT22;11592;45.460;9.240;2022-09-21T10:15:57;21.10;99.50
22852;DHT22;11592;45.460;9.240;2022-09-21T10:19:16;21.30;99.30
22852;DHT22;11592;45.460;9.240;2022-09-21T10:24:00;21.70;97.70
22852;DHT22;11592;45.460;9.240;2022-09-21T10:26:35;22.10;97.20
22852;DHT22;11592;45.460;9.240;2022-09-21T10:31:55;22.70;96.60
22852;DHT22;11592;45.460;9.240;2022-09-21T10:34:27;22.90;96.50
22852;DHT22;11592;45.460;9.240;2022-09-21T10:36:57;23.30;96.20
22852;DHT22;11592;45.460;9.240;2022-09-21T10:39:28;23.60;95.20
22852;DHT22;11592;45.460;9.240;2022-09-21T10:42:10;24.00;95.70
22852;DHT22;11592;45.460;9.240;2022-09-21T10:44:49;24.10;94.70
22852;DHT22;11592;45.460;9.240;2022-09-21T10:47:36;24.20;94.20
22852;DHT22;11592;45.460;9.240;2022-09-21T10:52:59;23.60;94.70
22852;DHT22;11592;45.460;9.240;2022-09-21T10:55:28;23.70;93.80
22852;DHT22;11592;45.460;9.240;2022-09-21T10:57:56;23.70;93.40
22852;DHT22;11592;45.460;9.240;2022-09-21T11:02:50;23.60;92.90
22852;DHT22;11592;45.460;9.240;2022-09-21T11:05:30;23.80;93.60
22852;DHT22;11592;45.460;9.240;2022-09-21T11:08:00;24.40;93.60
22852;DHT22;11592;45.460;9.240;2022-09-21T11:10:48;25.00;93.20
22852;DHT22;11592;45.460;9.240;2022-09-21T11:16:11;26.10;90.30
22852;DHT22;11592;45.460;9.240;2022-09-21T11:21:39;27.20;89.40
22852;DHT22;11592;45.460;9.240;2022-09-21T11:27:26;27.60;86.50
22852;DHT22;11592;45.460;9.240;2022-09-21T11:30:15;28.00;84.10
22852;DHT22;11592;45.460;9.240;2022-09-21T11:42:01;29.70;77.90
22852;DHT22;11592;45.460;9.240;2022-09-21T11:44:58;29.60;77.20
22852;DHT22;11592;45.460;9.240;2022-09-21T11:47:46;29.80;73.60
22852;DHT22;11592;45.460;9.240;2022-09-21T11:58:32;29.70;70.30
22852;DHT22;11592;45.460;9.240;2022-09-21T12:12:09;33.40;60.40
22852;DHT22;11592;45.460;9.240;2022-09-21T12:15:09;32.20;62.10
22852;DHT22;11592;45.460;9.240;2022-09-21T12:22:59;34.70;56.00
22852;DHT22;11592;45.460;9.240;2022-09-21T12:25:33;35.50;57.50
22852;DHT22;11592;45.460;9.240;2022-09-21T12:30:49;37.00;51.10
22852;DHT22;11592;45.460;9.240;2022-09-21T12:33:29;38.50;45.90
22852;DHT22;11592;45.460;9.240;2022-09-21T12:36:04;39.50;46.10
22852;DHT22;11592;45.460;9.240;2022-09-21T12:42:01;39.70;42.70
22852;DHT22;11592;45.460;9.240;2022-09-21T12:52:55;37.70;44.80
22852;DHT22;11592;45.460;9.240;2022-09-21T12:55:39;34.50;43.70
22852;DHT22;11592;45.460;9.240;2022-09-21T13:03:37;34.60;45.10
22852;DHT22;11592;45.460;9.240;2022-09-21T13:08:48;35.10;43.40
22852;DHT22;11592;45.460;9.240;2022-09-21T13:11:21;34.10;44.20
22852;DHT22;11592;45.460;9.240;2022-09-21T13:13:49;34.70;45.50
22852;DHT22;11592;45.460;9.240;2022-09-21T13:16:25;35.30;44.50
22852;DHT22;11592;45.460;9.240;2022-09-21T13:19:00;37.00;43.00
22852;DHT22;11592;45.460;9.240;2022-09-21T13:21:28;38.70;40.10
22852;DHT22;11592;45.460;9.240;2022-09-21T13:26:41;39.20;39.10
22852;DHT22;11592;45.460;9.240;2022-09-21T13:34:50;34.20;44.30
22852;DHT22;11592;45.460;9.240;2022-09-21T13:45:00;34.90;41.90
22852;DHT22;11592;45.460;9.240;2022-09-21T13:47:31;32.50;45.40
22852;DHT22;11592;45.460;9.240;2022-09-21T13:50:18;30.60;48.60
22852;DHT22;11592;45.460;9.240;2022-09-21T13:52:55;29.10;49.90
22852;DHT22;11592;45.460;9.240;2022-09-21T13:55:38;28.10;54.00
22852;DHT22;11592;45.460;9.240;2022-09-21T13:58:18;27.60;53.30
22852;DHT22;11592;45.460;9.240;2022-09-21T14:03:37;26.90;54.50
22852;DHT22;11592;45.460;9.240;2022-09-21T14:08:34;26.30;55.00
22852;DHT22;11592;45.460;9.240;2022-09-21T14:11:27;25.90;56.00
22852;DHT22;11592;45.460;9.240;2022-09-21T14:27:19;24.70;60.00
22852;DHT22;11592;45.460;9.240;2022-09-21T14:32:44;24.30;61.20
22852;DHT22;11592;45.460;9.240;2022-09-21T14:35:19;24.30;61.60
22852;DHT22;11592;45.460;9.240;2022-09-21T14:37:56;24.30;61.30
22852;DHT22;11592;45.460;9.240;2022-09-21T14:40:30;24.50;61.50
22852;DHT22;11592;45.460;9.240;2022-09-21T14:42:59;24.60;61.80
22852;DHT22;11592;45.460;9.240;2022-09-21T14:51:12;24.40;63.60
22852;DHT22;11592;45.460;9.240;2022-09-21T14:56:29;24.40;63.00
22852;DHT22;11592;45.460;9.240;2022-09-21T15:02:17;24.20;62.80
22852;DHT22;11592;45.460;9.240;2022-09-21T15:07:59;24.20;62.20
22852;DHT22;11592;45.460;9.240;2022-09-21T15:11:19;24.20;64.50
22852;DHT22;11592;45.460;9.240;2022-09-21T15:16:46;24.00;64.70
22852;DHT22;11592;45.460;9.240;2022-09-21T15:21:49;24.10;65.50
22852;DHT22;11592;45.460;9.240;2022-09-21T15:24:24;24.20;66.10
22852;DHT22;11592;45.460;9.240;2022-09-21T15:27:00;24.30;64.70
22852;DHT22;11592;45.460;9.240;2022-09-21T15:29:29;24.20;64.70
22852;DHT22;11592;45.460;9.240;2022-09-21T15:31:57;24.20;64.40
22852;DHT22;11592;45.460;9.240;2022-09-21T15:34:25;24.10;63.70
22852;DHT22;11592;45.460;9.240;2022-09-21T15:36:52;24.50;62.30
22852;DHT22;11592;45.460;9.240;2022-09-21T15:39:27;26.10;60.70
22852;DHT22;11592;45.460;9.240;2022-09-21T15:42:18;27.90;58.60
22852;DHT22;11592;45.460;9.240;2022-09-21T15:44:49;29.40;55.00
22852;DHT22;11592;45.460;9.240;2022-09-21T15:47:21;30.10;55.80
22852;DHT22;11592;45.460;9.240;2022-09-21T15:49:51;30.60;52.30
22852;DHT22;11592;45.460;9.240;2022-09-21T15:52:35;30.80;51.50
22852;DHT22;11592;45.460;9.240;2022-09-21T15:55:20;30.90;50.30
22852;DHT22;11592;45.460;9.240;2022-09-21T15:57:49;30.60;50.30
22852;DHT22;11592;45.460;9.240;2022-09-21T16:00:19;30.30;50.10
22852;DHT22;11592;45.460;9.240;2022-09-21T16:03:06;29.40;50.50
22852;DHT22;11592;45.460;9.240;2022-09-21T16:10:44;26.30;55.20
22852;DHT22;11592;45.460;9.240;2022-09-21T16:13:17;25.40;56.50
22852;DHT22;11592;45.460;9.240;2022-09-21T16:18:48;24.30;58.60
22852;DHT22;11592;45.460;9.240;2022-09-21T16:23:56;23.60;60.00
22852;DHT22;11592;45.460;9.240;2022-09-21T16:26:27;23.50;60.90
22852;DHT22;11592;45.460;9.240;2022-09-21T16:31:45;23.20;61.60
22852;DHT22;11592;45.460;9.240;2022-09-21T16:36:44;23.00;63.60
22852;DHT22;11592;45.460;9.240;2022-09-21T16:39:12;22.90;64.40
22852;DHT22;11592;45.460;9.240;2022-09-21T16:42:00;22.80;66.10
22852;DHT22;11592;45.460;9.240;2022-09-21T16:44:27;22.70;65.90
22852;DHT22;11592;45.460;9.240;2022-09-21T16:47:02;22.60;66.00
22852;DHT22;11592;45.460;9.240;2022-09-21T16:49:31;22.50;67.00
22852;DHT22;11592;45.460;9.240;2022-09-21T16:52:00;22.40;67.80
22852;DHT22;11592;45.460;9.240;2022-09-21T16:54:28;22.30;68.70
22852;DHT22;11592;45.460;9.240;2022-09-21T16:56:57;22.20;68.70
22852;DHT22;11592;45.460;9.240;2022-09-21T16:59:25;22.10;69.00
22852;DHT22;11592;45.460;9.240;2022-09-21T17:01:53;22.10;69.20
22852;DHT22;11592;45.460;9.240;2022-09-21T17:04:24;22.10;69.70
22852;DHT22;11592;45.460;9.240;2022-09-21T17:06:52;22.00;68.80
22852;DHT22;11592;45.460;9.240;2022-09-21T17:09:28;22.00;68.30
22852;DHT22;11592;45.460;9.240;2022-09-21T17:12:01;21.90;68.60
22852;DHT22;11592;45.460;9.240;2022-09-21T17:14:29;21.90;67.90
22852;DHT22;11592;45.460;9.240;2022-09-21T17:17:18;21.80;68.70
22852;DHT22;11592;45.460;9.240;2022-09-21T17:19:46;21.80;69.30
22852;DHT22;11592;45.460;9.240;2022-09-21T17:22:15;21.80;69.80
22852;DHT22;11592;45.460;9.240;2022-09-21T17:24:47;21.70;70.50
22852;DHT22;11592;45.460;9.240;2022-09-21T17:27:22;21.60;70.00
22852;DHT22;11592;45.460;9.240;2022-09-21T17:29:49;21.60;70.70
22852;DHT22;11592;45.460;9.240;2022-09-21T17:32:18;21.40;70.90
22852;DHT22;11592;45.460;9.240;2022-09-21T17:34:50;21.40;70.70
22852;DHT22;11592;45.460;9.240;2022-09-21T17:37:18;21.40;71.10
22852;DHT22;11592;45.460;9.240;2022-09-21T17:39:45;21.40;72.40
22852;DHT22;11592;45.460;9.240;2022-09-21T17:42:16;21.30;72.60
22852;DHT22;11592;45.460;9.240;2022-09-21T17:47:47;21.30;74.10
22852;DHT22;11592;45.460;9.240;2022-09-21T17:50:24;21.20;74.60
22852;DHT22;11592;45.460;9.240;2022-09-21T17:52:53;21.20;75.10
22852;DHT22;11592;45.460;9.240;2022-09-21T17:55:49;21.10;75.90
22852;DHT22;11592;45.460;9.240;2022-09-21T17:58:46;21.10;76.50
22852;DHT22;11592;45.460;9.240;2022-09-21T18:01:34;21.00;77.00
22852;DHT22;11592;45.460;9.240;2022-09-21T18:04:02;21.00;77.40
22852;DHT22;11592;45.460;9.240;2022-09-21T18:06:29;20.90;79.30
22852;DHT22;11592;45.460;9.240;2022-09-21T18:08:57;20.80;79.80
22852;DHT22;11592;45.460;9.240;2022-09-21T18:16:51;20.70;83.90
22852;DHT22;11592;45.460;9.240;2022-09-21T18:22:22;20.60;84.10
22852;DHT22;11592;45.460;9.240;2022-09-21T18:24:54;20.60;84.70
22852;DHT22;11592;45.460;9.240;2022-09-21T18:27:22;20.50;85.50
22852;DHT22;11592;45.460;9.240;2022-09-21T18:29:49;20.50;85.90
22852;DHT22;11592;45.460;9.240;2022-09-21T18:35:46;20.40;86.90
22852;DHT22;11592;45.460;9.240;2022-09-21T18:38:29;20.40;86.90
22852;DHT22;11592;45.460;9.240;2022-09-21T18:54:52;20.20;90.30
22852;DHT22;11592;45.460;9.240;2022-09-21T18:57:19;20.10;90.30
22852;DHT22;11592;45.460;9.240;2022-09-21T18:59:48;20.10;90.40
22852;DHT22;11592;45.460;9.240;2022-09-21T19:02:18;20.00;91.20
22852;DHT22;11592;45.460;9.240;2022-09-21T19:04:45;19.90;91.20
22852;DHT22;11592;45.460;9.240;2022-09-21T19:07:35;19.80;91.80
22852;DHT22;11592;45.460;9.240;2022-09-21T19:13:03;19.80;92.10
22852;DHT22;11592;45.460;9.240;2022-09-21T19:15:56;19.70;92.80
22852;DHT22;11592;45.460;9.240;2022-09-21T19:21:24;19.70;93.40
22852;DHT22;11592;45.460;9.240;2022-09-21T19:23:59;19.60;93.70
22852;DHT22;11592;45.460;9.240;2022-09-21T19:31:48;19.60;94.20
22852;DHT22;11592;45.460;9.240;2022-09-21T19:34:18;19.50;94.00
22852;DHT22;11592;45.460;9.240;2022-09-21T19:36:46;19.50;93.80
22852;DHT22;11592;45.460;9.240;2022-09-21T19:39:14;19.40;94.30
22852;DHT22;11592;45.460;9.240;2022-09-21T19:42:03;19.40;94.80
22852;DHT22;11592;45.460;9.240;2022-09-21T19:47:13;19.30;95.80
22852;DHT22;11592;45.460;9.240;2022-09-21T19:49:49;19.20;96.40
22852;DHT22;11592;45.460;9.240;2022-09-21T19:52:18;19.10;96.40
22852;DHT22;11592;45.460;9.240;2022-09-21T19:54:45;19.10;96.80
22852;DHT22;11592;45.460;9.240;2022-09-21T19:57:31;19.00;97.40
22852;DHT22;11592;45.460;9.240;2022-09-21T20:00:18;19.00;97.30
22852;DHT22;11592;45.460;9.240;2022-09-21T20:08:35;19.00;96.40
22852;DHT22;11592;45.460;9.240;2022-09-21T20:11:17;18.90;96.50
22852;DHT22;11592;45.460;9.240;2022-09-21T20:16:35;18.90;96.80
22852;DHT22;11592;45.460;9.240;2022-09-21T20:22:17;18.80;96.90
22852;DHT22;11592;45.460;9.240;2022-09-21T20:27:36;18.80;97.10
22852;DHT22;11592;45.460;9.240;2022-09-21T20:30:13;18.70;97.60
22852;DHT22;11592;45.460;9.240;2022-09-21T20:32:43;18.70;97.60
22852;DHT22;11592;45.460;9.240;2022-09-21T20:35:22;18.60;98.00
22852;DHT22;11592;45.460;9.240;2022-09-21T20:37:49;18.60;98.40